Airfield :
LOGIN :

Register | Disclaimer

   EN    FR    IT 

 










Legend :    VFR   Marginal VFR   IFR   Intensive IFR   Very Intensive IFR
Visi :
Ceiling :
>= 8 km
>= 3000ft
5 to 8 km
1000 to 3000 ft
1500m to 5 km
500 to 1000 ft
800 to 1500m
200 to 500 ft
< 800m
< 200 ft
Symbols :   Thunderstorms  Fog  Heavy snow  Heavy precipitations  Wind > 20 kt
SIGMETs :     Misc.  Thunderstorms  Icing  Turbulence  Mountain Waves  Volcanic Ashes






- Airport Elevation : 52 ft
- IATA code : RNN


EKRN - Bornholm Ronne

CURRENT METAR :
  • 171220Z AUTO 20008KT 9999 OVC021/// 13/13 Q1010

EXPIRED METARs :
  • 171150Z AUTO 19009KT 9999 OVC023/// 13/13 Q1010
  • 171120Z AUTO 19009KT 9999 BKN021/// OVC038/// 13/13 Q1010
  • 171050Z AUTO 19010KT 9999 FEW005/// OVC019/// 13/13 Q1010
  • 171020Z AUTO 19010KT 9999 BKN003/// OVC013/// 13/13 Q1010
  • 170950Z AUTO 19011KT 5000 OVC002/// 12/12 Q1010

TAF TAF EKRN
Valid from the 17 at 12:00 until the 17 at 21:00 UTC


171124Z 1712/1721 18010KT 8000 BKN020
PROB40 1712/1715 BKN008
TEMPO 1715/1721 3000 -RADZ BR BKN004



MET'MAP, your aeronautical weather chart ! - Copyright ORBIFLY December 2007 - Disclaimer

ORBIFLY MET'MAP TEAM :

Programming & Development : Alexandra Zaïnal
Concept & Development : Baudouin d'Aumeries
Co-Development & Prog : Marc-Olivier Méhu
Technical & hardware support : Manuel Goepfert

Contact : metmap@orbifly.com




SOURCES & CREDITS :

   NOAA